Time;durP1;ratioP1;P1;durP2;ratioP2;P2;SDS_P1;SDS_P2;PMS_P1;PMS_P2;Temp;Humidity;BMP_temperature;BMP_pressure;BME280_temperature;BME280_humidity;BME280_pressure;Samples;Min_cycle;Max_cycle;Signal;HPM_P1;HPM_P2
2023/12/03 00:01:47;;;;;;;;;;;0.90;99.90;;;;;;5033104;28;19921;-69
2023/12/03 00:04:15;;;;;;;;;;;1.00;99.90;;;;;;5033624;28;19932;-68
2023/12/03 00:06:43;;;;;;;;;;;0.80;99.90;;;;;;5037337;28;19927;-68
2023/12/03 00:09:11;;;;;;;;;;;0.50;99.90;;;;;;5033617;28;19932;-68
2023/12/03 00:11:39;;;;;;;;;;;0.40;99.90;;;;;;5028082;28;19921;-68
2023/12/03 00:14:08;;;;;;;;;;;0.10;99.90;;;;;;5033663;28;19921;-68
2023/12/03 00:16:36;;;;;;;;;;;-0.10;99.90;;;;;;5033050;28;19935;-69
2023/12/03 00:19:03;;;;;;;;;;;0.00;99.90;;;;;;5033361;28;19924;-68
2023/12/03 00:21:31;;;;;;;;;;;0.00;99.90;;;;;;5031604;28;19921;-69
2023/12/03 00:23:59;;;;;;;;;;;-0.20;99.90;;;;;;5035447;28;19931;-68
2023/12/03 00:26:27;;;;;;;;;;;-0.40;99.90;;;;;;5039053;28;20383;-68
2023/12/03 00:28:55;;;;;;;;;;;-0.60;99.90;;;;;;5034940;28;19967;-69
2023/12/03 00:31:24;;;;;;;;;;;-0.50;99.90;;;;;;5037210;28;19971;-68
2023/12/03 00:33:52;;;;;;;;;;;-0.40;99.90;;;;;;5031954;28;19925;-68
2023/12/03 00:36:19;;;;;;;;;;;-0.30;99.90;;;;;;5028807;28;20388;-68
2023/12/03 00:38:47;;;;;;;;;;;-0.20;99.90;;;;;;5032580;28;19921;-68
2023/12/03 00:41:15;;;;;;;;;;;0.20;99.90;;;;;;5038571;28;19925;-69
2023/12/03 00:43:43;;;;;;;;;;;0.30;99.90;;;;;;5032768;28;19983;-69
2023/12/03 00:46:10;;;;;;;;;;;0.00;99.90;;;;;;5032599;28;19924;-69
2023/12/03 00:48:40;;;;;;;;;;;-0.10;99.90;;;;;;5032564;28;19984;-68
2023/12/03 00:51:08;;;;;;;;;;;0.10;99.90;;;;;;5032618;28;19921;-68
2023/12/03 00:53:36;;;;;;;;;;;0.40;99.90;;;;;;5035117;28;19980;-68
2023/12/03 00:56:04;;;;;;;;;;;0.40;99.90;;;;;;5032781;28;19921;-68
2023/12/03 00:58:32;;;;;;;;;;;0.40;99.90;;;;;;5032390;28;20346;-67
2023/12/03 01:00:59;;;;;;;;;;;0.70;99.90;;;;;;5032499;28;19921;-69
2023/12/03 01:03:27;;;;;;;;;;;0.80;99.90;;;;;;5024206;28;19928;-68
2023/12/03 01:05:57;;;;;;;;;;;0.60;99.90;;;;;;5031908;28;19928;-69
2023/12/03 01:08:25;;;;;;;;;;;0.60;99.90;;;;;;5031907;28;19944;-68
2023/12/03 01:10:53;;;;;;;;;;;0.70;99.90;;;;;;5032084;28;20387;-68
2023/12/03 01:13:20;;;;;;;;;;;0.60;99.90;;;;;;5032472;28;19987;-68
2023/12/03 01:15:48;;;;;;;;;;;0.40;99.90;;;;;;5031739;28;20315;-68
2023/12/03 01:18:16;;;;;;;;;;;0.30;99.90;;;;;;5033762;28;19920;-68
2023/12/03 01:20:44;;;;;;;;;;;0.30;99.90;;;;;;5031663;28;19928;-68
2023/12/03 01:23:13;;;;;;;;;;;0.40;99.90;;;;;;5032023;28;20168;-69
2023/12/03 01:25:41;;;;;;;;;;;0.30;99.90;;;;;;5031634;28;19921;-69
2023/12/03 01:28:09;;;;;;;;;;;-0.40;99.90;;;;;;5031512;28;19928;-69
2023/12/03 01:30:36;;;;;;;;;;;-0.90;99.90;;;;;;5030864;28;20070;-69
2023/12/03 01:33:04;;;;;;;;;;;-0.80;99.90;;;;;;5024149;28;20440;-68
2023/12/03 01:35:32;;;;;;;;;;;-0.30;99.90;;;;;;5031831;28;19923;-68
2023/12/03 01:38:02;;;;;;;;;;;-0.10;99.90;;;;;;5024157;28;19928;-68
2023/12/03 01:40:31;;;;;;;;;;;0.20;99.90;;;;;;5031784;28;20422;-68
2023/12/03 01:43:00;;;;;;;;;;;0.10;99.90;;;;;;5023389;28;19971;-69
2023/12/03 01:45:27;;;;;;;;;;;0.20;99.90;;;;;;5031641;28;20423;-70
2023/12/03 01:47:56;;;;;;;;;;;0.10;99.90;;;;;;5031481;28;19929;-69
2023/12/03 01:50:24;;;;;;;;;;;-0.20;99.90;;;;;;5031837;28;19928;-68
2023/12/03 01:52:52;;;;;;;;;;;-0.30;99.90;;;;;;5031217;28;19968;-68
2023/12/03 01:55:20;;;;;;;;;;;-0.40;99.90;;;;;;5031178;28;19924;-70
2023/12/03 01:57:49;;;;;;;;;;;-0.40;99.90;;;;;;5031110;28;19979;-69
2023/12/03 02:00:17;;;;;;;;;;;-0.30;99.90;;;;;;5031581;28;20043;-68
2023/12/03 02:02:45;;;;;;;;;;;0.10;99.90;;;;;;5022918;28;20044;-67
2023/12/03 02:05:13;;;;;;;;;;;0.30;99.90;;;;;;5031389;28;20020;-68
2023/12/03 02:07:41;;;;;;;;;;;0.40;99.90;;;;;;5031214;28;19920;-68
2023/12/03 02:10:09;;;;;;;;;;;0.30;99.90;;;;;;5031117;28;19928;-68
2023/12/03 02:12:37;;;;;;;;;;;0.10;99.90;;;;;;5030710;28;19939;-67
2023/12/03 02:15:08;;;;;;;;;;;-0.40;99.90;;;;;;5016140;28;19924;-68
2023/12/03 02:17:36;;;;;;;;;;;-0.20;99.90;;;;;;5033357;28;19929;-68
2023/12/03 02:20:05;;;;;;;;;;;0.10;99.90;;;;;;5039323;28;19928;-68
2023/12/03 02:22:33;;;;;;;;;;;0.40;99.90;;;;;;5030512;28;20372;-68
2023/12/03 02:25:02;;;;;;;;;;;0.60;99.90;;;;;;5030813;28;20017;-68
2023/12/03 02:27:29;;;;;;;;;;;0.30;99.90;;;;;;5031319;28;20323;-69
2023/12/03 02:29:57;;;;;;;;;;;-0.10;99.90;;;;;;5030185;28;19925;-69
2023/12/03 02:32:25;;;;;;;;;;;-0.50;99.90;;;;;;5030600;28;20351;-69
2023/12/03 02:34:53;;;;;;;;;;;-0.50;99.90;;;;;;5030828;28;19921;-69
2023/12/03 02:37:20;;;;;;;;;;;-0.50;99.90;;;;;;5030980;28;19921;-70
2023/12/03 02:39:48;;;;;;;;;;;-0.40;99.90;;;;;;5030900;28;19925;-69
2023/12/03 02:42:17;;;;;;;;;;;-0.20;99.90;;;;;;5030822;28;20384;-69
2023/12/03 02:44:45;;;;;;;;;;;-0.10;99.90;;;;;;5033598;28;19932;-69
2023/12/03 02:47:13;;;;;;;;;;;0.00;99.90;;;;;;5034302;28;19997;-69
2023/12/03 02:49:40;;;;;;;;;;;0.10;99.90;;;;;;5034789;28;19967;-69
2023/12/03 02:52:09;;;;;;;;;;;-0.10;99.90;;;;;;5026934;28;19921;-67
2023/12/03 02:54:38;;;;;;;;;;;-0.10;99.90;;;;;;5034879;28;20189;-67
2023/12/03 02:57:06;;;;;;;;;;;-0.20;99.90;;;;;;5018581;28;19921;-67
2023/12/03 02:59:35;;;;;;;;;;;-0.40;99.90;;;;;;5034974;28;19931;-68
2023/12/03 03:02:03;;;;;;;;;;;-0.40;99.90;;;;;;5033467;28;19921;-65
2023/12/03 03:04:31;;;;;;;;;;;-0.40;99.90;;;;;;5034695;28;20020;-67
2023/12/03 03:06:59;;;;;;;;;;;-0.10;99.90;;;;;;5034493;28;19964;-67
2023/12/03 03:09:26;;;;;;;;;;;0.10;99.90;;;;;;5034687;28;19940;-68
2023/12/03 03:11:57;;;;;;;;;;;-0.10;99.90;;;;;;5034134;28;19936;-68
2023/12/03 03:14:24;;;;;;;;;;;-0.30;99.90;;;;;;5034699;28;19928;-67
2023/12/03 03:16:53;;;;;;;;;;;-0.30;99.90;;;;;;5034126;28;19991;-68
2023/12/03 03:19:21;;;;;;;;;;;-0.30;99.90;;;;;;5037219;28;19936;-67
2023/12/03 03:21:49;;;;;;;;;;;-0.30;99.90;;;;;;5033947;28;19921;-67
2023/12/03 03:24:17;;;;;;;;;;;-0.10;99.90;;;;;;5034457;28;19925;-67
2023/12/03 03:26:45;;;;;;;;;;;-0.20;99.90;;;;;;5033871;28;19940;-67
2023/12/03 03:29:12;;;;;;;;;;;-0.30;99.90;;;;;;5034146;28;19928;-67
2023/12/03 03:31:40;;;;;;;;;;;-0.80;99.90;;;;;;5034055;28;20364;-67
2023/12/03 03:34:09;;;;;;;;;;;-0.80;99.90;;;;;;5033920;28;20009;-67
2023/12/03 03:36:37;;;;;;;;;;;-0.50;99.90;;;;;;5033848;28;19982;-68
2023/12/03 03:39:05;;;;;;;;;;;-0.70;99.90;;;;;;5034040;28;20019;-67
2023/12/03 03:41:33;;;;;;;;;;;-0.60;99.90;;;;;;5034337;28;20421;-67
2023/12/03 03:44:01;;;;;;;;;;;-0.50;99.90;;;;;;5033595;28;19925;-67
2023/12/03 03:46:28;;;;;;;;;;;-0.80;99.90;;;;;;5033893;28;19925;-67
2023/12/03 03:48:56;;;;;;;;;;;-0.70;99.90;;;;;;5033773;28;20304;-67
2023/12/03 03:51:25;;;;;;;;;;;-0.90;99.90;;;;;;5033919;28;19960;-67
2023/12/03 03:53:54;;;;;;;;;;;-0.70;99.90;;;;;;5032657;28;19928;-67
2023/12/03 03:56:22;;;;;;;;;;;-0.90;99.90;;;;;;5031961;28;20371;-67
2023/12/03 03:58:50;;;;;;;;;;;-1.00;99.90;;;;;;5033828;28;20548;-66
2023/12/03 04:01:18;;;;;;;;;;;-1.00;99.90;;;;;;5033548;28;19929;-66
2023/12/03 04:03:46;;;;;;;;;;;-1.20;99.90;;;;;;5033588;28;19921;-66
2023/12/03 04:06:13;;;;;;;;;;;-1.30;99.90;;;;;;5025518;28;20321;-66
2023/12/03 04:08:43;;;;;;;;;;;-1.10;99.90;;;;;;5033532;28;19971;-66
2023/12/03 04:11:11;;;;;;;;;;;-1.00;99.90;;;;;;5032816;28;19925;-66
2023/12/03 04:13:40;;;;;;;;;;;-1.10;99.90;;;;;;5032951;28;19927;-66
2023/12/03 04:16:08;;;;;;;;;;;-1.10;99.90;;;;;;5032971;28;19925;-67
2023/12/03 04:18:37;;;;;;;;;;;-1.40;99.90;;;;;;5037048;28;19921;-67
2023/12/03 04:21:13;;;;;;;;;;;-1.10;99.90;;;;;;5033116;28;20371;-66
2023/12/03 04:23:42;;;;;;;;;;;-0.80;99.90;;;;;;5033391;28;20296;-66
2023/12/03 04:26:12;;;;;;;;;;;-0.50;99.90;;;;;;5026854;28;20359;-67
2023/12/03 04:28:40;;;;;;;;;;;-0.20;99.90;;;;;;5033134;28;19928;-66
2023/12/03 04:31:16;;;;;;;;;;;-0.10;99.90;;;;;;5022186;28;19929;-67
2023/12/03 04:33:43;;;;;;;;;;;0.10;99.90;;;;;;5028794;28;19979;-67
2023/12/03 04:36:12;;;;;;;;;;;-0.10;99.90;;;;;;5032814;28;19932;-68
2023/12/03 04:38:40;;;;;;;;;;;-0.20;99.90;;;;;;5033108;28;19921;-68
2023/12/03 04:41:09;;;;;;;;;;;-0.10;99.90;;;;;;5033159;28;19925;-68
2023/12/03 04:43:37;;;;;;;;;;;0.20;99.90;;;;;;5032549;28;19921;-69
2023/12/03 04:46:05;;;;;;;;;;;0.30;99.90;;;;;;5031621;28;19948;-68
2023/12/03 04:48:34;;;;;;;;;;;0.40;99.90;;;;;;5032853;28;19925;-69
2023/12/03 04:51:02;;;;;;;;;;;0.30;99.90;;;;;;5032378;28;19991;-68
2023/12/03 04:53:30;;;;;;;;;;;0.40;99.90;;;;;;5032782;28;19925;-68
2023/12/03 04:55:58;;;;;;;;;;;0.40;99.90;;;;;;5032346;28;20399;-69
2023/12/03 04:58:27;;;;;;;;;;;0.20;99.90;;;;;;5032517;28;20307;-68
2023/12/03 05:00:54;;;;;;;;;;;0.30;99.90;;;;;;5031498;28;19924;-68
2023/12/03 05:03:22;;;;;;;;;;;0.10;99.90;;;;;;5024344;28;19928;-68
2023/12/03 05:05:51;;;;;;;;;;;0.10;99.90;;;;;;5031990;28;20380;-69
2023/12/03 05:08:19;;;;;;;;;;;0.00;99.90;;;;;;5024122;28;19920;-68
2023/12/03 05:10:47;;;;;;;;;;;-0.10;99.90;;;;;;5032956;28;20396;-68
2023/12/03 05:13:15;;;;;;;;;;;-0.20;99.90;;;;;;5032529;28;19982;-68
2023/12/03 05:15:44;;;;;;;;;;;-0.40;99.90;;;;;;5032345;28;19927;-68
2023/12/03 05:18:12;;;;;;;;;;;-0.50;99.90;;;;;;5036404;28;19927;-67
2023/12/03 05:20:40;;;;;;;;;;;-0.40;99.90;;;;;;5032066;28;19924;-68
2023/12/03 05:23:08;;;;;;;;;;;-0.10;99.90;;;;;;5031995;28;19920;-67
2023/12/03 05:25:35;;;;;;;;;;;0.10;99.90;;;;;;5031937;28;19920;-67
2023/12/03 05:28:03;;;;;;;;;;;0.00;99.90;;;;;;5023873;28;19941;-68
2023/12/03 05:30:31;;;;;;;;;;;0.00;99.90;;;;;;5031889;28;19921;-67
2023/12/03 05:33:00;;;;;;;;;;;0.10;99.90;;;;;;5031493;28;19940;-67
2023/12/03 05:35:28;;;;;;;;;;;0.00;99.90;;;;;;5031709;28;19929;-67
2023/12/03 05:37:56;;;;;;;;;;;-0.10;99.90;;;;;;5031556;28;19921;-68
2023/12/03 05:40:24;;;;;;;;;;;-0.10;99.90;;;;;;5031788;28;19928;-68
2023/12/03 05:42:51;;;;;;;;;;;-0.30;99.90;;;;;;5031904;28;20288;-66
2023/12/03 05:45:19;;;;;;;;;;;-0.60;99.90;;;;;;5031399;28;20015;-67
2023/12/03 05:47:47;;;;;;;;;;;-0.70;99.90;;;;;;5013413;28;19928;-68
2023/12/03 05:50:16;;;;;;;;;;;-0.80;99.90;;;;;;5030318;28;19925;-68
2023/12/03 05:52:44;;;;;;;;;;;-0.70;99.90;;;;;;5031457;28;20390;-68
2023/12/03 05:55:12;;;;;;;;;;;-0.90;99.90;;;;;;5031076;28;19971;-68
2023/12/03 05:57:40;;;;;;;;;;;-0.80;99.90;;;;;;5031526;28;19924;-67
2023/12/03 06:00:08;;;;;;;;;;;-0.80;99.90;;;;;;5031645;28;19925;-69
2023/12/03 06:02:36;;;;;;;;;;;-0.70;99.90;;;;;;5031393;28;20042;-69
2023/12/03 06:05:04;;;;;;;;;;;-1.00;99.90;;;;;;5030644;28;20312;-68
2023/12/03 06:07:34;;;;;;;;;;;-1.10;99.90;;;;;;5031282;28;19921;-68
2023/12/03 06:10:01;;;;;;;;;;;-1.10;99.90;;;;;;5031217;28;19925;-70
2023/12/03 06:12:29;;;;;;;;;;;-1.10;99.90;;;;;;5031417;28;20178;-68
2023/12/03 06:14:57;;;;;;;;;;;-1.10;99.90;;;;;;5031086;28;19921;-69
2023/12/03 06:17:25;;;;;;;;;;;-1.30;99.90;;;;;;5023479;28;19921;-68
2023/12/03 06:19:53;;;;;;;;;;;-1.30;99.90;;;;;;5035577;28;20012;-67
2023/12/03 06:22:21;;;;;;;;;;;-1.30;99.90;;;;;;5029892;28;19921;-68
2023/12/03 06:24:50;;;;;;;;;;;-1.20;99.90;;;;;;5031346;28;19921;-70
2023/12/03 06:27:18;;;;;;;;;;;-1.00;99.90;;;;;;5031031;28;20016;-71
2023/12/03 06:29:46;;;;;;;;;;;-1.10;99.90;;;;;;5031272;28;19927;-70
2023/12/03 06:32:14;;;;;;;;;;;-1.00;99.90;;;;;;5028906;28;19921;-68
2023/12/03 06:34:41;;;;;;;;;;;-0.90;99.90;;;;;;5024880;28;19921;-68
2023/12/03 06:37:09;;;;;;;;;;;-1.10;99.90;;;;;;5030807;28;20015;-68
2023/12/03 06:39:37;;;;;;;;;;;-1.20;99.90;;;;;;5030363;28;19975;-66
2023/12/03 06:42:06;;;;;;;;;;;-1.40;99.90;;;;;;5030803;28;19921;-66
2023/12/03 06:44:34;;;;;;;;;;;-1.70;99.90;;;;;;5030622;28;19983;-66
2023/12/03 06:47:11;;;;;;;;;;;-1.90;99.90;;;;;;5030778;28;20559;-66
2023/12/03 06:49:41;;;;;;;;;;;-2.10;99.90;;;;;;5031037;28;19921;-65
2023/12/03 06:52:08;;;;;;;;;;;-2.10;99.90;;;;;;5030606;28;19964;-66
2023/12/03 06:54:36;;;;;;;;;;;-1.80;99.90;;;;;;5027075;28;19929;-67
2023/12/03 06:57:06;;;;;;;;;;;-1.90;99.90;;;;;;5030491;28;19921;-67
2023/12/03 06:59:35;;;;;;;;;;;-2.00;99.90;;;;;;5030869;28;20043;-67
2023/12/03 07:02:03;;;;;;;;;;;-2.20;99.90;;;;;;5021633;28;19936;-66
2023/12/03 07:04:30;;;;;;;;;;;-2.30;99.90;;;;;;5030517;28;19921;-67
2023/12/03 07:07:00;;;;;;;;;;;-2.40;99.90;;;;;;5030124;28;20392;-67
2023/12/03 07:09:31;;;;;;;;;;;-2.40;99.90;;;;;;5024418;28;19925;-67
2023/12/03 07:12:07;;;;;;;;;;;-2.60;99.90;;;;;;5020872;28;19920;-66
2023/12/03 07:14:36;;;;;;;;;;;1.50;99.90;;;;;;5019574;28;19929;-67
2023/12/03 07:17:04;;;;;;;;;;;5.60;99.90;;;;;;5015491;28;19925;-67
2023/12/03 07:19:32;;;;;;;;;;;6.80;99.90;;;;;;5018317;28;19936;-66
2023/12/03 07:22:00;;;;;;;;;;;7.50;99.90;;;;;;5016256;28;19928;-64
2023/12/03 07:24:31;;;;;;;;;;;8.00;99.90;;;;;;5019836;28;19984;-67
2023/12/03 07:26:58;;;;;;;;;;;8.60;99.90;;;;;;5018763;28;20668;-66
2023/12/03 07:29:26;;;;;;;;;;;8.60;99.90;;;;;;5020750;28;19929;-65
2023/12/03 07:31:55;;;;;;;;;;;8.70;99.90;;;;;;5018988;28;19929;-64
2023/12/03 07:34:23;;;;;;;;;;;8.20;99.90;;;;;;5017287;28;20215;-66
2023/12/03 07:36:51;;;;;;;;;;;7.70;99.90;;;;;;5019553;28;19928;-66
2023/12/03 07:39:19;;;;;;;;;;;6.30;99.90;;;;;;5021495;28;19936;-70
2023/12/03 07:41:49;;;;;;;;;;;4.90;99.90;;;;;;5017914;28;20511;-66
2023/12/03 07:44:17;;;;;;;;;;;3.80;99.90;;;;;;5019591;28;19928;-65
2023/12/03 07:46:45;;;;;;;;;;;2.90;99.90;;;;;;5020820;28;20517;-65
2023/12/03 07:49:14;;;;;;;;;;;2.30;99.90;;;;;;5020567;28;19936;-65
2023/12/03 07:51:42;;;;;;;;;;;1.80;99.90;;;;;;5015703;28;19933;-66
2023/12/03 07:54:10;;;;;;;;;;;1.30;99.90;;;;;;5020234;28;20026;-65
2023/12/03 07:56:38;;;;;;;;;;;0.90;99.90;;;;;;5018209;28;19929;-65
2023/12/03 07:59:06;;;;;;;;;;;0.50;99.90;;;;;;5021341;28;19921;-70
2023/12/03 08:01:35;;;;;;;;;;;0.10;99.90;;;;;;5016244;28;19921;-67
2023/12/03 08:04:03;;;;;;;;;;;-0.10;99.90;;;;;;5019824;28;20308;-70
2023/12/03 08:06:33;;;;;;;;;;;-0.20;99.90;;;;;;5019089;28;19932;-68
2023/12/03 08:09:01;;;;;;;;;;;-0.20;99.90;;;;;;5019777;28;19932;-67
2023/12/03 08:11:29;;;;;;;;;;;-0.30;99.90;;;;;;5017244;28;20430;-67
2023/12/03 08:13:56;;;;;;;;;;;-0.40;99.90;;;;;;5020426;28;19928;-67
2023/12/03 08:16:26;;;;;;;;;;;-0.50;99.90;;;;;;5018438;28;19925;-70
2023/12/03 08:18:53;;;;;;;;;;;-0.50;99.90;;;;;;5017972;28;20408;-65
2023/12/03 08:21:21;;;;;;;;;;;-0.60;99.90;;;;;;5014700;28;19936;-66
2023/12/03 08:23:51;;;;;;;;;;;-0.60;99.90;;;;;;5020549;28;19931;-70
2023/12/03 08:26:19;;;;;;;;;;;-0.50;99.90;;;;;;5021729;28;19929;-66
2023/12/03 08:28:46;;;;;;;;;;;-0.40;99.90;;;;;;5022452;28;19929;-67
2023/12/03 08:31:14;;;;;;;;;;;-0.40;99.90;;;;;;5018030;28;19932;-68
2023/12/03 08:33:45;;;;;;;;;;;-0.30;99.90;;;;;;5018804;28;19929;-72
2023/12/03 08:36:16;;;;;;;;;;;-0.10;99.90;;;;;;5019557;28;19935;-66
2023/12/03 08:38:45;;;;;;;;;;;0.10;99.90;;;;;;5020135;28;20075;-67
2023/12/03 08:41:14;;;;;;;;;;;0.20;99.90;;;;;;5012427;28;20011;-69
2023/12/03 08:43:42;;;;;;;;;;;0.40;99.90;;;;;;5018375;28;19932;-72
2023/12/03 08:46:10;;;;;;;;;;;0.60;99.90;;;;;;5017429;28;20063;-69
2023/12/03 08:48:38;;;;;;;;;;;0.80;99.90;;;;;;5018216;28;19921;-66
2023/12/03 08:51:06;;;;;;;;;;;1.00;99.90;;;;;;5017560;28;19935;-68
2023/12/03 08:53:34;;;;;;;;;;;1.30;99.90;;;;;;5021755;28;20012;-66
2023/12/03 08:56:02;;;;;;;;;;;1.50;99.90;;;;;;5020518;28;19955;-66
2023/12/03 08:58:31;;;;;;;;;;;1.80;99.90;;;;;;5020201;28;20012;-71
2023/12/03 09:00:59;;;;;;;;;;;2.20;99.90;;;;;;5018928;28;19936;-68
2023/12/03 09:03:27;;;;;;;;;;;2.40;99.90;;;;;;5018644;28;19929;-66
2023/12/03 09:05:55;;;;;;;;;;;2.60;99.90;;;;;;5018120;28;19974;-68
2023/12/03 09:08:23;;;;;;;;;;;2.70;99.90;;;;;;5019201;28;19928;-69
2023/12/03 09:10:51;;;;;;;;;;;2.90;99.90;;;;;;5017690;28;19929;-68
2023/12/03 09:13:19;;;;;;;;;;;2.90;99.90;;;;;;5018146;28;19935;-66
2023/12/03 09:15:48;;;;;;;;;;;3.00;99.90;;;;;;5017802;28;19932;-66
2023/12/03 09:18:16;;;;;;;;;;;2.70;99.90;;;;;;5018383;28;20418;-66
2023/12/03 09:20:44;;;;;;;;;;;2.70;99.90;;;;;;5018538;28;20008;-65
2023/12/03 09:23:11;;;;;;;;;;;3.00;99.90;;;;;;5019443;28;19925;-68
2023/12/03 09:25:40;;;;;;;;;;;2.80;99.90;;;;;;5017688;28;19935;-66
2023/12/03 09:28:07;;;;;;;;;;;2.90;99.90;;;;;;5017046;28;20471;-67
2023/12/03 09:30:35;;;;;;;;;;;3.00;99.90;;;;;;5017095;28;19943;-66
2023/12/03 09:33:05;;;;;;;;;;;3.00;99.90;;;;;;5018584;28;19925;-71
2023/12/03 09:35:33;;;;;;;;;;;2.90;99.90;;;;;;5015167;28;20397;-65
2023/12/03 09:38:01;;;;;;;;;;;3.10;99.90;;;;;;5019008;28;19929;-65
2023/12/03 09:40:29;;;;;;;;;;;3.20;99.90;;;;;;5016005;28;20407;-69
2023/12/03 09:42:58;;;;;;;;;;;3.30;99.90;;;;;;5019219;28;19935;-66
2023/12/03 09:45:27;;;;;;;;;;;3.00;99.90;;;;;;4999120;28;19929;-67
2023/12/03 09:47:58;;;;;;;;;;;3.00;99.90;;;;;;5018079;28;19925;-69
2023/12/03 09:50:28;;;;;;;;;;;3.10;99.90;;;;;;5017108;28;19933;-71
2023/12/03 09:52:56;;;;;;;;;;;3.40;99.90;;;;;;5019401;28;19929;-68
2023/12/03 09:55:24;;;;;;;;;;;3.60;99.90;;;;;;5015720;28;19935;-66
2023/12/03 09:57:54;;;;;;;;;;;3.80;99.90;;;;;;5018770;28;19983;-67
2023/12/03 10:00:23;;;;;;;;;;;3.90;99.90;;;;;;5016763;28;19933;-68
2023/12/03 10:02:52;;;;;;;;;;;3.90;99.90;;;;;;5000275;28;19929;-68
2023/12/03 10:05:20;;;;;;;;;;;4.10;99.90;;;;;;5018631;28;19932;-66
2023/12/03 10:07:50;;;;;;;;;;;4.30;99.90;;;;;;5017996;28;20033;-65
2023/12/03 10:10:19;;;;;;;;;;;4.10;99.90;;;;;;5016823;28;20568;-65
2023/12/03 10:12:47;;;;;;;;;;;3.70;99.90;;;;;;5017187;28;20023;-64
2023/12/03 10:15:15;;;;;;;;;;;3.60;99.90;;;;;;5016211;28;19936;-65
2023/12/03 10:17:44;;;;;;;;;;;3.50;99.90;;;;;;5017868;28;19929;-68
2023/12/03 10:20:21;;;;;;;;;;;3.40;99.90;;;;;;5018452;28;19929;-71
2023/12/03 10:22:50;;;;;;;;;;;3.50;99.90;;;;;;4996792;28;20419;-65
2023/12/03 10:25:25;;;;;;;;;;;3.50;99.90;;;;;;4997015;28;19929;-64
2023/12/03 10:27:54;;;;;;;;;;;3.40;99.90;;;;;;4995899;28;20042;-67
2023/12/03 10:30:21;;;;;;;;;;;3.30;99.90;;;;;;4997419;28;19929;-69
2023/12/03 10:32:50;;;;;;;;;;;3.10;99.90;;;;;;4998621;28;20430;-70
2023/12/03 10:35:19;;;;;;;;;;;3.00;99.90;;;;;;4994893;28;19948;-65
2023/12/03 10:37:50;;;;;;;;;;;2.90;99.90;;;;;;4999142;28;19929;-65
2023/12/03 10:40:19;;;;;;;;;;;3.00;99.90;;;;;;4997377;28;19930;-69
2023/12/03 10:42:47;;;;;;;;;;;3.30;99.90;;;;;;4997508;28;20297;-65
2023/12/03 10:45:15;;;;;;;;;;;3.40;99.90;;;;;;4995767;28;19929;-65
2023/12/03 10:47:43;;;;;;;;;;;3.50;99.90;;;;;;4998627;28;20415;-65
2023/12/03 10:50:12;;;;;;;;;;;3.20;99.90;;;;;;4998002;28;20181;-65
2023/12/03 10:52:41;;;;;;;;;;;3.30;99.90;;;;;;4998721;28;19953;-67
2023/12/03 10:55:11;;;;;;;;;;;3.40;99.90;;;;;;4996458;28;19929;-68
2023/12/03 10:57:44;;;;;;;;;;;3.30;99.90;;;;;;4995989;28;20272;-65
2023/12/03 11:00:13;;;;;;;;;;;3.10;99.90;;;;;;4996220;28;19926;-71
2023/12/03 11:02:44;;;;;;;;;;;2.90;99.90;;;;;;4997227;28;19969;-66
2023/12/03 11:05:19;;;;;;;;;;;2.80;99.90;;;;;;4998486;28;19929;-66
2023/12/03 11:07:47;;;;;;;;;;;3.00;99.90;;;;;;5001226;28;20392;-64
2023/12/03 11:10:16;;;;;;;;;;;3.30;99.90;;;;;;4999574;28;19930;-65
2023/12/03 11:12:44;;;;;;;;;;;3.40;99.90;;;;;;5002232;28;20008;-65
2023/12/03 11:15:12;;;;;;;;;;;3.40;99.90;;;;;;4998589;28;19930;-67
2023/12/03 11:17:41;;;;;;;;;;;3.10;99.90;;;;;;5001559;28;20725;-67
2023/12/03 11:20:11;;;;;;;;;;;3.20;99.90;;;;;;5000853;28;20305;-68
2023/12/03 11:22:46;;;;;;;;;;;3.40;99.90;;;;;;5019703;28;20069;-69
2023/12/03 11:25:15;;;;;;;;;;;3.40;99.90;;;;;;5019643;28;19925;-65
2023/12/03 11:27:44;;;;;;;;;;;3.40;99.90;;;;;;5020588;28;19929;-67
2023/12/03 11:30:13;;;;;;;;;;;3.20;99.90;;;;;;5019981;28;19929;-70
2023/12/03 11:32:42;;;;;;;;;;;2.90;99.90;;;;;;5020925;28;20019;-64
2023/12/03 11:35:16;;;;;;;;;;;3.00;99.90;;;;;;5018780;28;19929;-65
2023/12/03 11:37:44;;;;;;;;;;;3.10;99.90;;;;;;5020823;28;19940;-65
2023/12/03 11:40:13;;;;;;;;;;;3.40;99.90;;;;;;5019695;28;20022;-68
2023/12/03 11:42:45;;;;;;;;;;;3.90;99.90;;;;;;5019951;28;20407;-67
2023/12/03 11:45:18;;;;;;;;;;;4.60;99.90;;;;;;5017928;28;19929;-67
2023/12/03 11:47:46;;;;;;;;;;;4.80;99.90;;;;;;5021180;28;19951;-65
2023/12/03 11:50:15;;;;;;;;;;;4.80;99.90;;;;;;5018756;28;19925;-65
2023/12/03 11:52:44;;;;;;;;;;;4.60;99.90;;;;;;5020233;28;19935;-64
2023/12/03 11:55:16;;;;;;;;;;;4.40;99.90;;;;;;5019272;28;20554;-70
2023/12/03 11:57:45;;;;;;;;;;;4.10;99.90;;;;;;5017833;28;19929;-65
2023/12/03 12:00:14;;;;;;;;;;;3.60;99.90;;;;;;5019664;28;19929;-70
2023/12/03 12:02:42;;;;;;;;;;;3.40;99.90;;;;;;5019594;28;19982;-67
2023/12/03 12:05:10;;;;;;;;;;;3.40;99.90;;;;;;5016387;28;19936;-69
2023/12/03 12:07:38;;;;;;;;;;;3.60;99.90;;;;;;5003557;28;19921;-66
2023/12/03 12:10:06;;;;;;;;;;;3.60;99.90;;;;;;5018883;28;19937;-68
2023/12/03 12:12:34;;;;;;;;;;;3.10;99.90;;;;;;5019131;28;19974;-68
2023/12/03 12:15:04;;;;;;;;;;;2.80;99.90;;;;;;5017831;28;19936;-66
2023/12/03 12:17:32;;;;;;;;;;;2.70;99.90;;;;;;5018361;28;19936;-67
2023/12/03 12:20:00;;;;;;;;;;;2.80;99.90;;;;;;5019779;28;19936;-66
2023/12/03 12:22:42;;;;;;;;;;;2.70;99.90;;;;;;5020148;28;19929;-68
2023/12/03 12:25:10;;;;;;;;;;;2.30;99.90;;;;;;5018686;28;19984;-68
2023/12/03 12:27:38;;;;;;;;;;;2.20;99.90;;;;;;5019852;28;19932;-67
2023/12/03 12:30:08;;;;;;;;;;;2.10;99.90;;;;;;5017488;28;19925;-67
2023/12/03 12:32:54;;;;;;;;;;;2.10;99.90;;;;;;5019429;28;20519;-68
2023/12/03 12:35:22;;;;;;;;;;;2.20;99.90;;;;;;5018433;28;20308;-64
2023/12/03 12:37:58;;;;;;;;;;;2.10;99.90;;;;;;5020358;28;19929;-69
2023/12/03 12:40:26;;;;;;;;;;;1.90;99.90;;;;;;5019365;28;19951;-66
2023/12/03 12:43:05;;;;;;;;;;;1.90;99.90;;;;;;5017659;28;19932;-68
2023/12/03 12:45:35;;;;;;;;;;;1.80;99.90;;;;;;5017610;28;19929;-70
2023/12/03 12:48:03;;;;;;;;;;;1.70;99.90;;;;;;5020348;28;19929;-65
2023/12/03 12:50:34;;;;;;;;;;;1.70;99.90;;;;;;5019038;28;19929;-67
2023/12/03 12:53:03;;;;;;;;;;;1.60;99.90;;;;;;5020493;28;19975;-65
2023/12/03 12:55:32;;;;;;;;;;;1.80;99.90;;;;;;5019294;28;20465;-65
2023/12/03 12:58:00;;;;;;;;;;;1.90;99.90;;;;;;5017757;28;19929;-68
2023/12/03 13:00:29;;;;;;;;;;;1.90;99.90;;;;;;5019181;28;19925;-68
2023/12/03 13:02:58;;;;;;;;;;;1.80;99.90;;;;;;5019693;28;19929;-66
2023/12/03 13:05:26;;;;;;;;;;;1.80;99.90;;;;;;5014832;28;20021;-65
2023/12/03 13:07:54;;;;;;;;;;;1.80;99.90;;;;;;5018558;28;19928;-66
2023/12/03 13:10:22;;;;;;;;;;;1.60;99.90;;;;;;5018864;28;19929;-64
2023/12/03 13:12:51;;;;;;;;;;;1.60;99.90;;;;;;5018905;28;20141;-67
2023/12/03 13:15:19;;;;;;;;;;;1.70;99.90;;;;;;5018585;28;19987;-66
2023/12/03 13:17:48;;;;;;;;;;;1.70;99.90;;;;;;5020183;28;20367;-67
2023/12/03 13:20:17;;;;;;;;;;;1.70;99.90;;;;;;5028128;28;19952;-68
2023/12/03 13:22:45;;;;;;;;;;;1.70;99.90;;;;;;5013992;28;19936;-69
2023/12/03 13:25:13;;;;;;;;;;;1.70;99.90;;;;;;5018097;28;20395;-69
2023/12/03 13:27:41;;;;;;;;;;;1.50;99.90;;;;;;5018655;28;20430;-65
2023/12/03 13:30:09;;;;;;;;;;;1.50;99.90;;;;;;5017380;28;20668;-69
2023/12/03 13:32:38;;;;;;;;;;;1.50;99.90;;;;;;5014477;28;19975;-67
2023/12/03 13:35:07;;;;;;;;;;;1.30;99.90;;;;;;5017871;28;19921;-68
2023/12/03 13:37:36;;;;;;;;;;;1.30;99.90;;;;;;5018914;28;20435;-66
2023/12/03 13:40:06;;;;;;;;;;;1.10;99.90;;;;;;5019428;28;19947;-66
2023/12/03 13:42:35;;;;;;;;;;;1.10;99.90;;;;;;5017182;28;19967;-65
2023/12/03 13:45:04;;;;;;;;;;;1.10;99.90;;;;;;5015811;28;20008;-65
2023/12/03 13:47:32;;;;;;;;;;;1.10;99.90;;;;;;5020337;28;19924;-67
2023/12/03 13:50:01;;;;;;;;;;;1.10;99.90;;;;;;5017573;28;19929;-66
2023/12/03 13:52:29;;;;;;;;;;;1.10;99.90;;;;;;5015659;28;20017;-71
2023/12/03 13:54:58;;;;;;;;;;;1.10;99.90;;;;;;5015394;28;19964;-67
2023/12/03 13:57:27;;;;;;;;;;;1.00;99.90;;;;;;5017298;28;20433;-66
2023/12/03 13:59:55;;;;;;;;;;;1.00;99.90;;;;;;5016530;28;20968;-69
2023/12/03 14:02:25;;;;;;;;;;;0.90;99.90;;;;;;5016196;28;20623;-69
2023/12/03 14:05:05;;;;;;;;;;;0.80;99.90;;;;;;5017456;28;19932;-68
2023/12/03 14:07:52;;;;;;;;;;;0.90;99.90;;;;;;5019088;28;20383;-67
2023/12/03 14:10:22;;;;;;;;;;;0.80;99.90;;;;;;5030893;28;19921;-68
2023/12/03 14:12:50;;;;;;;;;;;0.90;99.90;;;;;;5020206;28;20379;-68
2023/12/03 14:15:17;;;;;;;;;;;0.90;99.90;;;;;;5017862;28;19921;-68
2023/12/03 14:17:45;;;;;;;;;;;0.90;99.90;;;;;;5031161;28;19931;-65
2023/12/03 14:20:13;;;;;;;;;;;0.80;99.90;;;;;;5031683;28;19927;-66
2023/12/03 14:22:41;;;;;;;;;;;0.80;99.90;;;;;;5031026;28;19972;-67
2023/12/03 14:25:09;;;;;;;;;;;0.70;99.90;;;;;;5030977;28;20013;-66
2023/12/03 14:27:40;;;;;;;;;;;0.70;99.90;;;;;;5030766;28;19964;-67
2023/12/03 14:30:09;;;;;;;;;;;0.70;99.90;;;;;;5031380;28;20124;-66
2023/12/03 14:32:37;;;;;;;;;;;0.70;99.90;;;;;;5031068;28;20404;-67
2023/12/03 14:35:06;;;;;;;;;;;0.60;99.90;;;;;;5031150;28;19921;-67